Merritt, Washington
Current Conditions -  °F | °C
As of 2:55 AM on Friday 19 Dec 2014 (Local Time) from KEAT Reporting Station
Haze Haze  
Wind Chill: 37°   Ceiling: 300
Heat Index: 37°   Visibility: 1mi
Dew Point: 35°   Wind: 0mph
Humidity: 93%   Direction: NA
Pressure: 29.86"   Gusts: NA
Location:  47.7866°N, 120.856°W
Report Text: KEAT 191055Z AUTO 00000KT 1SM BR OVC003 03/02 A2986 RMK AO2 RAE41 SLP120 P0000 T00280017
Loading
Personal Weather Stations






























Interactive Weather Map New forecast layout! Learn more

10-Day Weather Forecast

Advertisements
Track Severe Weather on mobile